createdAt,value
2023-04-09T00:01:57.668Z,102024.97
2023-04-09T00:04:25.276Z,102021.88
2023-04-09T00:06:52.967Z,102019.72
2023-04-09T00:09:20.912Z,102018.31
2023-04-09T00:11:49.924Z,102022.19
2023-04-09T00:14:17.548Z,102023.53
2023-04-09T00:16:45.229Z,102020.34
2023-04-09T00:19:13.528Z,102021.56
2023-04-09T00:21:41.202Z,102020.19
2023-04-09T00:24:08.875Z,102018.69
2023-04-09T00:26:38.087Z,102017.22
2023-04-09T00:29:07.125Z,102024.59
2023-04-09T00:31:34.822Z,102020.44
2023-04-09T00:34:03.602Z,102018.13
2023-04-09T00:36:31.585Z,102014.88
2023-04-09T00:38:59.196Z,102016.13
2023-04-09T00:41:26.824Z,102004.16
2023-04-09T00:43:57.282Z,102010.63
2023-04-09T00:46:26.651Z,102012.69
2023-04-09T00:48:54.872Z,102005.94
2023-04-09T00:51:24.276Z,102006.31
2023-04-09T00:53:54.071Z,102003.94
2023-04-09T00:56:23.238Z,101994.63
2023-04-09T00:58:51.346Z,101994.81
2023-04-09T01:01:19.290Z,101998.59
2023-04-09T01:03:48.568Z,101999.66
2023-04-09T01:06:24.895Z,102003.38
2023-04-09T01:09:00.198Z,101996.53
2023-04-09T01:11:36.812Z,101998.44
2023-04-09T01:14:09.596Z,102002.22
2023-04-09T01:16:43.121Z,101999.81
2023-04-09T01:19:29.235Z,101999.16
2023-04-09T01:21:58.825Z,102005.53
2023-04-09T01:24:42.557Z,102003.03
2023-04-09T01:27:15.086Z,102006.75
2023-04-09T01:29:55.753Z,102003.53
2023-04-09T01:32:25.015Z,102007.28
2023-04-09T01:34:53.704Z,102010.03
2023-04-09T01:37:22.996Z,102010.31
2023-04-09T01:39:51.168Z,102008.69
2023-04-09T01:42:19.332Z,101998.31
2023-04-09T01:44:48.088Z,102008.97
2023-04-09T01:47:17.287Z,102006.56
2023-04-09T01:49:45.710Z,102004.97
2023-04-09T01:52:13.727Z,102007.72
2023-04-09T01:54:41.498Z,102007.94
2023-04-09T01:57:09.101Z,102008.06
2023-04-09T01:59:38.453Z,102007.34
2023-04-09T02:02:11.584Z,102007.47
2023-04-09T02:04:44.786Z,102009.34
2023-04-09T02:07:19.665Z,102001.59
2023-04-09T02:09:50.253Z,102007.78
2023-04-09T02:12:19.665Z,102002.72
2023-04-09T02:14:50.093Z,102005.44
2023-04-09T02:17:18.197Z,101995.97
2023-04-09T02:19:49.067Z,101995.25
2023-04-09T02:22:17.813Z,101995.38
2023-04-09T02:24:49.293Z,101992.84
2023-04-09T02:27:17.541Z,101994.72
2023-04-09T02:29:47.092Z,101993.91
2023-04-09T02:32:40.283Z,101994.09
2023-04-09T02:35:11.106Z,101989.81
2023-04-09T02:37:41.177Z,101991.66
2023-04-09T02:40:10.895Z,101987.25
2023-04-09T02:42:38.419Z,101988.25
2023-04-09T02:45:11.096Z,101983.88
2023-04-09T02:47:38.832Z,101983.09
2023-04-09T02:50:09.891Z,101987.56
2023-04-09T02:52:42.127Z,101980.59
2023-04-09T02:55:09.845Z,101979.78
2023-04-09T02:57:37.499Z,101972.88
2023-04-09T03:00:05.871Z,101969.50
2023-04-09T03:02:35.641Z,101972.31
2023-04-09T03:05:03.427Z,101973.28
2023-04-09T03:07:33.844Z,101967.28
2023-04-09T03:10:02.391Z,101963.00
2023-04-09T03:12:29.984Z,101958.75
2023-04-09T03:14:57.653Z,101961.47
2023-04-09T03:17:27.063Z,101958.94
2023-04-09T03:20:00.105Z,101952.97
2023-04-09T03:22:38.507Z,101951.38
2023-04-09T03:25:16.083Z,101951.53
2023-04-09T03:27:45.311Z,101950.81
2023-04-09T03:30:20.082Z,101951.78
2023-04-09T03:32:47.748Z,101947.56
2023-04-09T03:35:16.093Z,101950.25
2023-04-09T03:37:47.207Z,101949.47
2023-04-09T03:40:18.792Z,101951.31
2023-04-09T03:42:47.237Z,101947.13
2023-04-09T03:45:16.998Z,101941.94
2023-04-09T03:47:48.130Z,101945.53
2023-04-09T03:50:16.641Z,101950.91
2023-04-09T03:52:55.889Z,101942.22
2023-04-09T03:55:23.907Z,101944.03
2023-04-09T03:57:52.521Z,101942.38
2023-04-09T04:00:25.250Z,101944.22
2023-04-09T04:03:14.632Z,101940.88
2023-04-09T04:06:02.843Z,101941.81
2023-04-09T04:08:40.107Z,101940.16
2023-04-09T04:11:08.500Z,101945.53
2023-04-09T04:13:36.179Z,101940.34
2023-04-09T04:16:09.659Z,101940.41
2023-04-09T04:18:39.743Z,101933.47
2023-04-09T04:21:37.715Z,101933.59
2023-04-09T04:24:08.249Z,101938.09
2023-04-09T04:26:35.906Z,101936.44
2023-04-09T04:29:04.192Z,101938.25
2023-04-09T04:31:46.153Z,101934.94
2023-04-09T04:34:20.181Z,101938.53
2023-04-09T04:36:57.079Z,101936.06
2023-04-09T04:39:27.123Z,101942.31
2023-04-09T04:42:03.113Z,101945.94
2023-04-09T04:44:31.199Z,101945.22
2023-04-09T04:47:08.591Z,101952.31
2023-04-09T04:49:37.187Z,101955.00
2023-04-09T04:52:07.506Z,101955.94
2023-04-09T04:54:36.905Z,101953.41
2023-04-09T04:57:05.076Z,101949.06
2023-04-09T04:59:38.522Z,101947.44
2023-04-09T05:02:10.397Z,101947.44
2023-04-09T05:04:57.096Z,101947.50
2023-04-09T05:07:50.292Z,101950.22
2023-04-09T05:10:21.142Z,101951.13
2023-04-09T05:12:50.304Z,101955.53
2023-04-09T05:15:39.345Z,101948.50
2023-04-09T05:18:08.398Z,101953.91
2023-04-09T05:20:37.376Z,101950.50
2023-04-09T05:23:13.091Z,101955.75
2023-04-09T05:25:45.564Z,101952.31
2023-04-09T05:28:36.966Z,101956.75
2023-04-09T05:31:13.458Z,101956.75
2023-04-09T05:33:47.588Z,101952.34
2023-04-09T05:36:21.161Z,101960.22
2023-04-09T05:38:49.080Z,101954.03
2023-04-09T05:41:18.879Z,101962.69
2023-04-09T05:44:00.802Z,101960.00
2023-04-09T05:46:30.077Z,101960.69
2023-04-09T05:48:57.745Z,101957.88
2023-04-09T05:51:27.297Z,101960.34
2023-04-09T05:53:56.857Z,101961.97
2023-04-09T05:56:27.105Z,101965.31
2023-04-09T06:01:53.161Z,101965.81
2023-04-09T06:04:21.107Z,101965.56
2023-04-09T06:06:48.784Z,101967.06
2023-04-09T06:09:16.361Z,101961.41
2023-04-09T06:11:45.293Z,101965.47
2023-04-09T06:14:17.064Z,101964.31
2023-04-09T06:16:44.663Z,101971.03
2023-04-09T06:19:12.891Z,101971.47
2023-04-09T06:21:40.890Z,101970.31
2023-04-09T06:24:08.524Z,101972.53
2023-04-09T06:26:38.066Z,101975.56
2023-04-09T06:29:06.939Z,101971.44
2023-04-09T06:31:34.620Z,101974.25
2023-04-09T06:34:02.479Z,101976.28
2023-04-09T06:36:30.328Z,101975.63
2023-04-09T06:38:59.032Z,101979.41
2023-04-09T06:41:54.087Z,101981.06
2023-04-09T06:44:37.064Z,101981.25
2023-04-09T06:47:04.664Z,101985.06
2023-04-09T06:49:33.108Z,101983.78
2023-04-09T06:52:01.237Z,101974.63
2023-04-09T06:54:28.786Z,101984.47
2023-04-09T06:56:56.850Z,101984.91
2023-04-09T06:59:24.752Z,101977.41
2023-04-09T07:01:54.697Z,101979.56
2023-04-09T07:07:15.098Z,101986.94
2023-04-09T07:09:43.538Z,101987.28
2023-04-09T07:12:11.103Z,101983.38
2023-04-09T07:14:38.802Z,101975.06
2023-04-09T07:17:07.672Z,101979.75
2023-04-09T07:19:36.079Z,101983.66
2023-04-09T07:22:03.794Z,101983.25
2023-04-09T07:24:32.524Z,101985.38
2023-04-09T07:27:06.320Z,101986.66
2023-04-09T07:29:33.929Z,101980.19
2023-04-09T07:32:03.366Z,101979.59
2023-04-09T07:34:32.275Z,101980.69
2023-04-09T07:37:00.465Z,101976.41
2023-04-09T07:39:28.312Z,101978.44
2023-04-09T07:41:57.079Z,101986.41
2023-04-09T07:44:25.385Z,101984.88
2023-04-09T07:46:53.516Z,101982.41
2023-04-09T07:49:22.952Z,101977.03
2023-04-09T07:51:52.021Z,101983.38
2023-04-09T07:54:21.052Z,101981.81
2023-04-09T07:56:49.065Z,101989.25
2023-04-09T07:59:17.348Z,101989.28
2023-04-09T08:01:45.288Z,101985.72
2023-04-09T08:04:14.377Z,101982.19
2023-04-09T08:06:42.183Z,101983.16
2023-04-09T08:09:11.061Z,101974.09
2023-04-09T08:11:39.536Z,101974.88
2023-04-09T08:14:12.724Z,101976.88
2023-04-09T08:16:41.342Z,101982.09
2023-04-09T08:19:09.016Z,101978.09
2023-04-09T08:21:38.769Z,101976.50
2023-04-09T08:24:07.504Z,101982.38
2023-04-09T08:26:37.187Z,101976.78
2023-04-09T08:29:09.372Z,101973.88
2023-04-09T08:31:38.309Z,101980.25
2023-04-09T08:34:07.157Z,101981.81
2023-04-09T08:36:35.663Z,101977.28
2023-04-09T08:39:04.291Z,101982.88
2023-04-09T08:41:31.935Z,101984.50
2023-04-09T08:44:00.858Z,101978.81
2023-04-09T08:46:29.116Z,101984.59
2023-04-09T08:48:57.065Z,101982.28
2023-04-09T08:51:29.703Z,101990.06
2023-04-09T08:54:27.192Z,101982.38
2023-04-09T08:56:49.033Z,101978.34
2023-04-09T08:59:19.311Z,101973.41
2023-04-09T09:01:52.565Z,101964.94
2023-04-09T09:04:20.697Z,101955.06
2023-04-09T09:06:48.288Z,101958.63
2023-04-09T09:09:17.512Z,101960.41
2023-04-09T09:11:46.877Z,101951.69
2023-04-09T09:14:16.504Z,101957.16
2023-04-09T09:17:04.543Z,101952.19
2023-04-09T09:19:34.792Z,101959.09
2023-04-09T09:22:04.212Z,101947.69
2023-04-09T09:24:33.858Z,101959.72
2023-04-09T09:27:02.403Z,101954.22
2023-04-09T09:29:30.131Z,101948.66
2023-04-09T09:32:02.109Z,101951.78
2023-04-09T09:34:29.704Z,101955.81
2023-04-09T09:36:57.473Z,101943.91
2023-04-09T09:39:25.035Z,101949.44
2023-04-09T09:42:08.712Z,101952.53
2023-04-09T09:44:37.204Z,101950.53
2023-04-09T09:47:06.670Z,101952.44
2023-04-09T09:49:34.209Z,101946.53
2023-04-09T09:52:04.145Z,101944.69
2023-04-09T09:54:41.582Z,101939.94
2023-04-09T09:57:13.205Z,101948.28
2023-04-09T09:59:48.563Z,101949.00
2023-04-09T10:02:23.880Z,101943.97
2023-04-09T10:04:53.215Z,101933.28
2023-04-09T10:07:22.543Z,101935.72
2023-04-09T10:09:51.893Z,101934.97
2023-04-09T10:12:23.726Z,101920.16
2023-04-09T10:14:52.743Z,101923.53
2023-04-09T10:17:22.053Z,101925.69
2023-04-09T10:19:57.182Z,101928.19
2023-04-09T10:22:33.151Z,101925.97
2023-04-09T10:25:02.091Z,101921.56
2023-04-09T10:27:29.652Z,101922.25
2023-04-09T10:29:57.236Z,101911.94
2023-04-09T10:32:28.327Z,101911.47
2023-04-09T10:35:01.073Z,101909.06
2023-04-09T10:37:29.835Z,101906.69
2023-04-09T10:39:58.549Z,101893.00
2023-04-09T10:42:31.371Z,101897.31
2023-04-09T10:45:07.531Z,101895.16
2023-04-09T10:47:37.789Z,101893.53
2023-04-09T10:50:17.093Z,101886.75
2023-04-09T10:52:45.176Z,101897.50
2023-04-09T10:55:37.975Z,101895.72
2023-04-09T10:58:09.735Z,101887.94
2023-04-09T11:00:44.104Z,101894.41
2023-04-09T11:03:21.666Z,101885.78
2023-04-09T11:05:52.809Z,101894.31
2023-04-09T11:08:21.955Z,101895.06
2023-04-09T11:10:51.967Z,101891.06
2023-04-09T11:13:21.868Z,101894.13
2023-04-09T11:15:49.629Z,101881.78
2023-04-09T11:18:21.438Z,101884.47
2023-04-09T11:20:50.259Z,101879.25
2023-04-09T11:23:19.091Z,101878.31
2023-04-09T11:25:51.105Z,101880.38
2023-04-09T11:28:19.304Z,101882.00
2023-04-09T11:30:48.107Z,101875.69
2023-04-09T11:33:19.931Z,101872.53
2023-04-09T11:35:48.277Z,101872.19
2023-04-09T11:38:16.038Z,101879.50
2023-04-09T11:40:48.275Z,101867.06
2023-04-09T11:43:17.596Z,101859.06
2023-04-09T11:45:47.549Z,101862.91
2023-04-09T11:48:18.068Z,101868.22
2023-04-09T11:50:47.926Z,101859.22
2023-04-09T11:53:19.829Z,101855.81
2023-04-09T11:55:50.681Z,101852.75
2023-04-09T11:58:18.465Z,101853.19
2023-04-09T12:00:46.644Z,101848.81
2023-04-09T12:03:16.828Z,101853.78
2023-04-09T12:05:50.625Z,101856.00
2023-04-09T12:08:24.551Z,101858.75
2023-04-09T12:10:53.905Z,101854.25
2023-04-09T12:13:22.775Z,101852.66
2023-04-09T12:15:51.374Z,101854.09
2023-04-09T12:18:19.103Z,101859.13
2023-04-09T12:20:49.584Z,101850.66
2023-04-09T12:23:17.599Z,101861.88
2023-04-09T12:25:47.575Z,101852.56
2023-04-09T12:28:18.148Z,101852.28
2023-04-09T12:30:47.127Z,101853.72
2023-04-09T12:33:14.863Z,101851.81
2023-04-09T12:35:42.449Z,101847.56
2023-04-09T12:38:11.388Z,101838.97
2023-04-09T12:40:40.723Z,101841.56
2023-04-09T12:43:08.281Z,101842.44
2023-04-09T12:45:36.513Z,101836.38
2023-04-09T12:48:05.036Z,101842.66
2023-04-09T12:50:33.266Z,101839.66
2023-04-09T12:53:02.221Z,101838.50
2023-04-09T12:55:31.105Z,101848.94
2023-04-09T12:57:59.034Z,101842.88
2023-04-09T13:00:30.723Z,101846.44
2023-04-09T13:02:58.857Z,101840.38
2023-04-09T13:05:26.493Z,101839.09
2023-04-09T13:07:54.030Z,101844.75
2023-04-09T13:10:21.648Z,101838.41
2023-04-09T13:12:51.336Z,101830.91
2023-04-09T13:15:19.718Z,101833.25
2023-04-09T13:17:47.296Z,101832.16
2023-04-09T13:20:15.960Z,101831.25
2023-04-09T13:22:48.531Z,101827.97
2023-04-09T13:25:16.407Z,101826.59
2023-04-09T13:27:43.999Z,101827.88
2023-04-09T13:30:13.461Z,101831.38
2023-04-09T13:32:42.157Z,101822.84
2023-04-09T13:35:13.123Z,101824.81
2023-04-09T13:37:47.124Z,101817.19
2023-04-09T13:40:15.121Z,101813.72
2023-04-09T13:42:42.680Z,101812.13
2023-04-09T13:45:11.088Z,101813.28
2023-04-09T13:47:40.266Z,101811.81
2023-04-09T13:50:10.161Z,101809.28
2023-04-09T13:52:37.788Z,101811.72
2023-04-09T13:55:06.437Z,101812.66
2023-04-09T13:57:34.139Z,101803.88
2023-04-09T14:00:04.603Z,101804.88
2023-04-09T14:02:32.747Z,101797.97
2023-04-09T14:05:03.599Z,101793.84
2023-04-09T14:07:31.219Z,101794.16
2023-04-09T14:09:58.893Z,101800.75
2023-04-09T14:12:26.679Z,101794.47
2023-04-09T14:14:54.228Z,101799.72
2023-04-09T14:17:21.796Z,101797.88
2023-04-09T14:19:50.120Z,101788.66
2023-04-09T14:22:19.071Z,101783.84
2023-04-09T14:24:46.613Z,101786.97
2023-04-09T14:27:14.185Z,101784.59
2023-04-09T14:29:41.946Z,101783.28
2023-04-09T14:32:09.655Z,101785.84
2023-04-09T14:34:37.529Z,101784.19
2023-04-09T14:37:05.479Z,101776.25
2023-04-09T14:39:35.508Z,101769.59
2023-04-09T14:42:03.106Z,101774.69
2023-04-09T14:44:31.544Z,101779.34
2023-04-09T14:46:59.840Z,101776.25
2023-04-09T14:49:27.647Z,101782.56
2023-04-09T14:51:55.292Z,101784.59
2023-04-09T14:54:24.522Z,101778.84
2023-04-09T14:56:53.478Z,101779.31
2023-04-09T14:59:24.626Z,101784.28
2023-04-09T15:01:52.812Z,101770.13
2023-04-09T15:04:20.701Z,101765.88
2023-04-09T15:06:48.380Z,101768.00
2023-04-09T15:09:17.623Z,101774.44
2023-04-09T15:11:45.404Z,101763.59
2023-04-09T15:14:15.141Z,101767.31
2023-04-09T15:17:06.949Z,101761.53
2023-04-09T15:19:34.572Z,101762.13
2023-04-09T15:22:03.227Z,101756.31
2023-04-09T15:24:31.140Z,101765.56
2023-04-09T15:26:58.701Z,101753.44
2023-04-09T15:29:27.745Z,101756.75
2023-04-09T15:31:55.379Z,101747.91
2023-04-09T15:34:23.293Z,101745.97
2023-04-09T15:36:54.812Z,101741.56
2023-04-09T15:39:24.305Z,101741.88
2023-04-09T15:41:51.941Z,101747.16
2023-04-09T15:44:19.583Z,101748.84
2023-04-09T15:46:48.586Z,101750.22
2023-04-09T15:49:16.348Z,101754.41
2023-04-09T15:51:46.125Z,101759.31
2023-04-09T15:54:13.706Z,101757.25
2023-04-09T15:56:42.138Z,101752.41
2023-04-09T15:59:10.942Z,101749.03
2023-04-09T16:01:38.909Z,101752.94
2023-04-09T16:04:08.957Z,101753.09
2023-04-09T16:06:36.580Z,101750.53
2023-04-09T16:09:04.208Z,101749.69
2023-04-09T16:11:31.896Z,101751.66
2023-04-09T16:14:00.117Z,101749.22
2023-04-09T16:16:28.800Z,101753.19
2023-04-09T16:18:56.983Z,101747.75
2023-04-09T16:21:27.572Z,101749.28
2023-04-09T16:23:55.891Z,101739.25
2023-04-09T16:26:23.576Z,101738.97
2023-04-09T16:28:51.488Z,101739.72
2023-04-09T16:31:20.242Z,101735.28
2023-04-09T16:33:47.809Z,101736.84
2023-04-09T16:36:16.337Z,101738.63
2023-04-09T16:38:45.258Z,101742.38
2023-04-09T16:41:12.946Z,101740.94
2023-04-09T16:43:40.488Z,101737.94
2023-04-09T16:46:08.652Z,101731.19
2023-04-09T16:48:41.406Z,101731.44
2023-04-09T16:51:09.332Z,101723.69
2023-04-09T16:53:38.816Z,101725.50
2023-04-09T16:56:08.974Z,101724.06
2023-04-09T16:58:36.619Z,101725.91
2023-04-09T17:01:05.173Z,101725.53
2023-04-09T17:03:34.313Z,101715.09
2023-04-09T17:06:04.337Z,101714.94
2023-04-09T17:08:32.909Z,101715.09
2023-04-09T17:11:03.007Z,101717.56
2023-04-09T17:13:35.138Z,101705.81
2023-04-09T17:16:04.261Z,101704.25
2023-04-09T17:18:32.307Z,101698.59
2023-04-09T17:21:01.146Z,101694.31
2023-04-09T17:23:28.764Z,101698.34
2023-04-09T17:25:56.863Z,101687.66
2023-04-09T17:28:24.451Z,101687.22
2023-04-09T17:30:53.442Z,101689.28
2023-04-09T17:33:25.151Z,101690.78
2023-04-09T17:35:52.827Z,101696.50
2023-04-09T17:38:21.616Z,101693.34
2023-04-09T17:40:49.368Z,101685.84
2023-04-09T17:43:17.469Z,101690.84
2023-04-09T17:45:45.147Z,101696.53
2023-04-09T17:48:14.660Z,101697.75
2023-04-09T17:50:42.368Z,101703.47
2023-04-09T17:53:09.905Z,101696.81
2023-04-09T17:55:37.611Z,101702.53
2023-04-09T17:58:05.140Z,101706.66
2023-04-09T18:00:34.200Z,101700.13
2023-04-09T18:03:02.046Z,101705.81
2023-04-09T18:05:32.114Z,101711.84
2023-04-09T18:08:02.005Z,101708.84
2023-04-09T18:10:29.783Z,101712.78
2023-04-09T18:12:57.396Z,101713.28
2023-04-09T18:15:24.989Z,101711.94
2023-04-09T18:17:53.189Z,101711.44
2023-04-09T18:20:20.952Z,101716.53
2023-04-09T18:22:50.724Z,101718.69
2023-04-09T18:25:18.315Z,101715.66
2023-04-09T18:27:46.088Z,101720.47
2023-04-09T18:30:13.947Z,101730.88
2023-04-09T18:32:41.943Z,101721.66
2023-04-09T18:35:10.586Z,101723.91
2023-04-09T18:37:38.217Z,101731.63
2023-04-09T18:40:11.870Z,101730.53
2023-04-09T18:42:39.563Z,101730.13
2023-04-09T18:45:07.882Z,101724.63
2023-04-09T18:47:35.737Z,101720.75
2023-04-09T18:50:04.274Z,101726.72
2023-04-09T18:52:32.213Z,101729.19
2023-04-09T18:54:59.941Z,101736.06
2023-04-09T18:57:28.984Z,101735.75
2023-04-09T18:59:56.744Z,101728.31
2023-04-09T19:02:24.444Z,101732.38
2023-04-09T19:04:52.604Z,101739.81
2023-04-09T19:07:20.510Z,101737.81
2023-04-09T19:09:48.652Z,101745.47
2023-04-09T19:12:16.220Z,101743.34
2023-04-09T19:14:45.351Z,101741.22
2023-04-09T19:17:13.584Z,101736.47
2023-04-09T19:19:42.684Z,101734.44
2023-04-09T19:22:10.286Z,101745.59
2023-04-09T19:24:38.267Z,101740.78
2023-04-09T19:27:09.649Z,101743.13
2023-04-09T19:29:37.385Z,101740.22
2023-04-09T19:32:09.149Z,101744.47
2023-04-09T19:34:36.885Z,101745.09
2023-04-09T19:37:05.289Z,101751.03
2023-04-09T19:39:34.132Z,101746.19
2023-04-09T19:42:02.688Z,101744.06
2023-04-09T19:44:30.561Z,101738.41
2023-04-09T19:46:58.230Z,101744.13
2023-04-09T19:49:28.539Z,101749.91
2023-04-09T19:51:56.121Z,101746.81
2023-04-09T19:54:23.777Z,101747.41
2023-04-09T19:56:51.460Z,101742.56
2023-04-09T19:59:19.135Z,101735.13
2023-04-09T20:01:47.922Z,101724.97
2023-04-09T20:04:15.702Z,101731.69
2023-04-09T20:06:45.637Z,101733.03
2023-04-09T20:09:13.634Z,101729.06
2023-04-09T20:11:43.294Z,101725.09
2023-04-09T20:14:12.011Z,101731.72
2023-04-09T20:16:39.759Z,101726.72
2023-04-09T20:19:07.328Z,101729.75
2023-04-09T20:21:35.031Z,101732.66
2023-04-09T20:24:04.582Z,101734.66
2023-04-09T20:26:32.624Z,101732.31
2023-04-09T20:29:00.253Z,101737.88
2023-04-09T20:31:28.491Z,101725.84
2023-04-09T20:33:56.241Z,101724.41
2023-04-09T20:36:23.776Z,101732.63
2023-04-09T20:38:51.686Z,101730.34
2023-04-09T20:41:22.263Z,101730.63
2023-04-09T20:43:49.991Z,101730.13
2023-04-09T20:46:17.634Z,101736.75
2023-04-09T20:48:45.347Z,101734.47
2023-04-09T20:51:13.188Z,101740.00
2023-04-09T20:53:41.287Z,101737.72
2023-04-09T20:56:09.894Z,101735.44
2023-04-09T20:58:40.119Z,101724.38
2023-04-09T21:01:10.367Z,101728.22
2023-04-09T21:03:39.117Z,101725.06
2023-04-09T21:06:08.087Z,101728.06
2023-04-09T21:08:37.145Z,101723.97
2023-04-09T21:11:04.919Z,101721.69
2023-04-09T21:13:40.517Z,101713.06
2023-04-09T21:16:19.934Z,101722.19
2023-04-09T21:18:47.768Z,101719.81
2023-04-09T21:21:15.510Z,101721.78
2023-04-09T21:23:43.120Z,101715.03
2023-04-09T21:26:11.751Z,101718.72
2023-04-09T21:28:39.291Z,101704.91
2023-04-09T21:31:07.230Z,101712.13
2023-04-09T21:33:38.915Z,101709.69
2023-04-09T21:36:08.072Z,101704.66
2023-04-09T21:38:35.892Z,101705.75
2023-04-09T21:41:04.296Z,101705.13
2023-04-09T21:43:31.934Z,101706.25
2023-04-09T21:45:59.833Z,101706.41
2023-04-09T21:48:28.116Z,101697.81
2023-04-09T21:50:58.452Z,101704.19
2023-04-09T21:53:27.252Z,101707.94
2023-04-09T21:55:55.163Z,101695.81
2023-04-09T21:58:23.136Z,101701.25
2023-04-09T22:00:50.680Z,101696.13
2023-04-09T22:03:18.478Z,101700.72
2023-04-09T22:05:46.205Z,101697.28
2023-04-09T22:08:15.895Z,101705.50
2023-04-09T22:10:43.540Z,101700.44
2023-04-09T22:13:11.136Z,101708.50
2023-04-09T22:15:38.736Z,101710.38
2023-04-09T22:18:07.199Z,101707.00
2023-04-09T22:20:34.730Z,101703.56
2023-04-09T22:23:03.319Z,101702.88
2023-04-09T22:25:34.940Z,101700.38
2023-04-09T22:30:57.967Z,101696.38
2023-04-09T22:33:26.411Z,101702.59
2023-04-09T22:35:54.735Z,101696.47
2023-04-09T22:38:22.944Z,101696.47
2023-04-09T22:40:52.055Z,101689.53
2023-04-09T22:43:19.761Z,101685.19
2023-04-09T22:45:52.174Z,101688.88
2023-04-09T22:48:20.973Z,101688.94
2023-04-09T22:50:49.352Z,101685.50
2023-04-09T22:53:19.645Z,101689.19
2023-04-09T22:55:50.189Z,101693.75
2023-04-09T22:58:19.438Z,101698.19
2023-04-09T23:00:48.309Z,101700.06
2023-04-09T23:03:18.303Z,101707.13
2023-04-09T23:05:46.190Z,101712.31
2023-04-09T23:08:13.857Z,101712.31
2023-04-09T23:10:41.671Z,101706.19
2023-04-09T23:13:10.088Z,101723.72
2023-04-09T23:15:40.115Z,101710.59
2023-04-09T23:18:07.759Z,101718.56
2023-04-09T23:20:37.167Z,101712.53
2023-04-09T23:23:04.866Z,101712.72
2023-04-09T23:25:32.469Z,101712.84
2023-04-09T23:28:00.280Z,101709.50
2023-04-09T23:30:28.171Z,101711.47
2023-04-09T23:32:57.786Z,101709.81
2023-04-09T23:35:25.492Z,101710.81
2023-04-09T23:37:54.637Z,101703.94
2023-04-09T23:40:22.219Z,101702.22
2023-04-09T23:42:50.228Z,101706.72
2023-04-09T23:45:23.105Z,101701.59
2023-04-09T23:47:52.381Z,101690.34
2023-04-09T23:50:23.067Z,101699.28
2023-04-09T23:52:51.425Z,101695.06
2023-04-09T23:55:19.859Z,101687.31
2023-04-09T23:57:47.439Z,101689.19
